West Ossipee, New Hampshire
Current Conditions -  °F | °C
As of 10:54 AM on Thursday 18 Dec 2014 (Local Time) from KIZG Reporting Station
Overcast Overcast  
Wind Chill:   Ceiling: 7500
Heat Index:   Visibility: 10mi
Dew Point: -3°   Wind: 10mph
Humidity: 57%   Direction: 260°W
Pressure: 29.69"   Gusts: 22mph
Location:  43.82°N, 71.21°W
Report Text: KIZG 181554Z AUTO 26009G19KT 10SM SCT048 BKN075 OVC120 05/M03 A2969 RMK AO2 SLP057 T00501028
Loading
Personal Weather Stations






























Interactive Weather Map New forecast layout! Learn more

10-Day Weather Forecast

Advertisements
Track Severe Weather on mobile